Time;durP1;ratioP1;P1;durP2;ratioP2;P2;SDS_P1;SDS_P2;PMS_P1;PMS_P2;Temp;Humidity;BMP_temperature;BMP_pressure;BME280_temperature;BME280_humidity;BME280_pressure;Samples;Min_cycle;Max_cycle;Signal;HPM_P1;HPM_P2
2023/03/12 00:04:35;;;;;;;11.32;3.70;;;;;;;;;;10371411;28;20030;-58
2023/03/12 00:09:38;;;;;;;5.03;3.38;;;;;;;;;;10371102;28;20034;-57
2023/03/12 00:14:38;;;;;;;6.63;3.13;;;;;;;;;;10369613;28;20332;-58
2023/03/12 00:19:39;;;;;;;9.40;3.25;;;;;;;;;;10371240;28;20026;-57
2023/03/12 00:24:39;;;;;;;10.20;3.47;;;;;;;;;;10370502;28;20033;-59
2023/03/12 00:29:40;;;;;;;5.88;3.50;;;;;;;;;;10370411;28;20425;-59
2023/03/12 00:34:41;;;;;;;6.70;2.90;;;;;;;;;;10370562;28;20381;-59
2023/03/12 00:39:41;;;;;;;8.77;3.50;;;;;;;;;;10368567;28;20123;-59
2023/03/12 00:44:43;;;;;;;7.03;3.63;;;;;;;;;;10369490;28;20057;-58
2023/03/12 00:49:43;;;;;;;6.13;3.28;;;;;;;;;;10369474;28;20081;-58
2023/03/12 00:54:44;;;;;;;6.00;3.33;;;;;;;;;;10369899;28;20038;-58
2023/03/12 00:59:44;;;;;;;8.35;3.13;;;;;;;;;;10369742;28;20034;-58
2023/03/12 01:04:45;;;;;;;6.63;2.90;;;;;;;;;;10368929;28;20373;-59
2023/03/12 01:09:46;;;;;;;10.68;2.90;;;;;;;;;;10368911;28;20032;-59
2023/03/12 01:14:46;;;;;;;8.82;3.33;;;;;;;;;;10368674;28;20049;-59
2023/03/12 01:19:47;;;;;;;6.63;3.13;;;;;;;;;;10369001;28;20034;-58
2023/03/12 01:24:48;;;;;;;10.38;2.72;;;;;;;;;;10368341;28;20036;-59
2023/03/12 01:29:49;;;;;;;8.50;2.95;;;;;;;;;;10367878;28;20033;-59
2023/03/12 01:34:49;;;;;;;4.90;2.92;;;;;;;;;;10368214;28;20030;-59
2023/03/12 01:39:50;;;;;;;4.90;2.67;;;;;;;;;;10368653;28;20065;-57
2023/03/12 01:45:03;;;;;;;5.88;3.08;;;;;;;;;;10367917;28;20038;-57
2023/03/12 01:50:04;;;;;;;4.43;2.33;;;;;;;;;;10367779;28;20034;-57
2023/03/12 01:55:12;;;;;;;3.92;2.45;;;;;;;;;;10366498;28;20025;-58
2023/03/12 02:00:26;;;;;;;6.80;3.33;;;;;;;;;;10366938;28;20034;-57
2023/03/12 02:06:01;;;;;;;4.18;2.50;;;;;;;;;;10367907;28;20061;-57
2023/03/12 02:11:02;;;;;;;5.13;2.28;;;;;;;;;;10366303;28;20441;-58
2023/03/12 02:16:03;;;;;;;3.03;2.50;;;;;;;;;;10367427;28;20034;-57
2023/03/12 02:21:19;;;;;;;3.22;2.30;;;;;;;;;;10367704;28;20461;-57
2023/03/12 02:26:21;;;;;;;3.08;2.17;;;;;;;;;;10366623;28;20276;-58
2023/03/12 02:31:33;;;;;;;4.28;2.30;;;;;;;;;;10366817;28;20076;-58
2023/03/12 02:36:35;;;;;;;3.67;2.55;;;;;;;;;;10367419;28;20036;-58
2023/03/12 02:41:47;;;;;;;3.35;2.55;;;;;;;;;;10369723;28;20030;-58
2023/03/12 02:46:52;;;;;;;4.97;2.53;;;;;;;;;;10373021;28;20046;-59
2023/03/12 02:51:53;;;;;;;3.83;2.63;;;;;;;;;;10374004;28;20482;-58
2023/03/12 02:56:54;;;;;;;3.53;2.38;;;;;;;;;;10373862;28;20025;-58
2023/03/12 03:01:58;;;;;;;4.03;2.45;;;;;;;;;;10374059;28;20026;-58
2023/03/12 03:06:59;;;;;;;6.10;2.42;;;;;;;;;;10374060;28;20041;-59
2023/03/12 03:12:00;;;;;;;2.42;2.20;;;;;;;;;;10373807;28;20033;-57
2023/03/12 03:17:00;;;;;;;2.85;1.80;;;;;;;;;;10372944;28;20155;-59
2023/03/12 03:22:01;;;;;;;3.45;2.08;;;;;;;;;;10372915;28;20026;-58
2023/03/12 03:27:01;;;;;;;2.78;2.22;;;;;;;;;;10372835;28;20092;-58
2023/03/12 03:32:02;;;;;;;4.15;2.20;;;;;;;;;;10373075;28;20030;-58
2023/03/12 03:37:03;;;;;;;2.40;2.20;;;;;;;;;;10372094;28;20029;-59
2023/03/12 03:42:04;;;;;;;2.65;2.00;;;;;;;;;;10371600;28;20049;-58
2023/03/12 03:47:05;;;;;;;3.45;2.30;;;;;;;;;;10371535;28;20070;-58
2023/03/12 03:52:06;;;;;;;2.83;2.00;;;;;;;;;;10371160;28;20053;-59
2023/03/12 03:57:06;;;;;;;2.55;2.00;;;;;;;;;;10371754;28;20442;-59
2023/03/12 04:02:07;;;;;;;2.25;1.80;;;;;;;;;;10371248;28;20022;-59
2023/03/12 04:07:07;;;;;;;2.83;2.22;;;;;;;;;;10370990;28;20033;-59
2023/03/12 04:12:08;;;;;;;2.58;1.83;;;;;;;;;;10370971;28;20044;-59
2023/03/12 04:17:09;;;;;;;2.45;2.05;;;;;;;;;;10370697;28;20038;-59
2023/03/12 04:22:10;;;;;;;2.55;2.33;;;;;;;;;;10370409;28;20025;-59
2023/03/12 04:27:10;;;;;;;2.13;1.90;;;;;;;;;;10370201;28;20492;-59
2023/03/12 04:32:11;;;;;;;2.53;2.00;;;;;;;;;;10370043;28;20026;-59
2023/03/12 04:37:14;;;;;;;2.17;1.60;;;;;;;;;;10369854;28;20127;-59
2023/03/12 04:42:15;;;;;;;2.15;1.88;;;;;;;;;;10370109;28;20021;-59
2023/03/12 04:47:15;;;;;;;1.90;1.70;;;;;;;;;;10369328;28;20054;-59
2023/03/12 04:52:16;;;;;;;2.97;1.90;;;;;;;;;;10369261;28;20413;-58
2023/03/12 04:57:17;;;;;;;3.13;1.90;;;;;;;;;;10369050;28;20094;-59
2023/03/12 05:02:17;;;;;;;2.72;1.77;;;;;;;;;;10368581;28;20026;-59
2023/03/12 05:07:18;;;;;;;1.60;1.50;;;;;;;;;;10368692;28;20034;-58
2023/03/12 05:12:19;;;;;;;1.70;1.60;;;;;;;;;;10368553;28;20095;-59
2023/03/12 05:17:20;;;;;;;2.35;1.65;;;;;;;;;;10369042;28;20038;-59
2023/03/12 05:22:20;;;;;;;2.03;1.58;;;;;;;;;;10369003;28;20030;-58
2023/03/12 05:27:21;;;;;;;2.97;1.70;;;;;;;;;;10368427;28;20474;-58
2023/03/12 05:32:22;;;;;;;3.50;1.73;;;;;;;;;;10368653;28;20508;-58
2023/03/12 05:37:22;;;;;;;4.20;1.75;;;;;;;;;;10367837;28;20474;-58
2023/03/12 05:42:23;;;;;;;2.08;1.70;;;;;;;;;;10368272;28;20041;-58
2023/03/12 05:47:24;;;;;;;2.63;1.92;;;;;;;;;;10367642;28;20493;-59
2023/03/12 05:52:24;;;;;;;2.05;1.80;;;;;;;;;;10367629;28;20018;-59
2023/03/12 05:57:25;;;;;;;1.98;1.67;;;;;;;;;;10367606;28;20030;-58
2023/03/12 06:02:26;;;;;;;1.90;1.70;;;;;;;;;;10367785;28;20041;-59
2023/03/12 06:07:26;;;;;;;1.60;1.50;;;;;;;;;;10367388;28;20137;-59
2023/03/12 06:12:27;;;;;;;5.85;1.70;;;;;;;;;;10367766;28;20030;-59
2023/03/12 06:17:30;;;;;;;1.73;1.63;;;;;;;;;;10374431;28;20079;-59
2023/03/12 06:22:31;;;;;;;1.60;1.50;;;;;;;;;;10375460;28;20076;-59
2023/03/12 06:27:32;;;;;;;2.20;2.00;;;;;;;;;;10375530;28;20084;-59
2023/03/12 06:32:32;;;;;;;1.80;1.60;;;;;;;;;;10375152;28;20584;-59
2023/03/12 06:37:33;;;;;;;1.80;1.60;;;;;;;;;;10374460;28;20381;-59
2023/03/12 06:42:34;;;;;;;2.58;1.80;;;;;;;;;;10375255;28;20240;-60
2023/03/12 06:47:34;;;;;;;2.13;1.63;;;;;;;;;;10374162;28;20068;-59
2023/03/12 06:52:35;;;;;;;2.40;1.98;;;;;;;;;;10373375;28;20037;-58
2023/03/12 06:57:35;;;;;;;3.10;1.88;;;;;;;;;;10373938;28;20030;-59
2023/03/12 07:02:36;;;;;;;4.40;1.77;;;;;;;;;;10373561;28;20022;-58
2023/03/12 07:07:37;;;;;;;1.77;1.52;;;;;;;;;;10373308;28;20035;-58
2023/03/12 07:12:38;;;;;;;2.15;1.67;;;;;;;;;;10374001;28;20029;-59
2023/03/12 07:17:38;;;;;;;4.13;1.80;;;;;;;;;;10373650;28;20026;-59
2023/03/12 07:22:39;;;;;;;1.88;1.60;;;;;;;;;;10372775;28;20026;-59
2023/03/12 07:27:40;;;;;;;2.97;1.80;;;;;;;;;;10372527;28;20045;-58
2023/03/12 07:32:41;;;;;;;2.45;1.75;;;;;;;;;;10371500;28;20037;-58
2023/03/12 07:37:41;;;;;;;3.88;1.83;;;;;;;;;;10372922;28;20077;-58
2023/03/12 07:42:42;;;;;;;4.20;1.60;;;;;;;;;;10372054;28;20477;-58
2023/03/12 07:47:43;;;;;;;8.00;1.83;;;;;;;;;;10371312;28;20046;-58
2023/03/12 07:52:45;;;;;;;64.68;3.88;;;;;;;;;;10371869;28;20069;-59
2023/03/12 07:57:45;;;;;;;7.20;2.13;;;;;;;;;;10371249;28;20022;-59
2023/03/12 08:02:46;;;;;;;3.00;2.10;;;;;;;;;;10371811;28;20048;-59
2023/03/12 08:07:46;;;;;;;7.43;2.72;;;;;;;;;;10371492;28;20029;-59
2023/03/12 08:12:47;;;;;;;7.97;2.15;;;;;;;;;;10370136;28;20025;-59
2023/03/12 08:17:48;;;;;;;3.03;1.98;;;;;;;;;;10370370;28;20025;-59
2023/03/12 08:22:49;;;;;;;4.93;2.10;;;;;;;;;;10370857;28;20512;-59
2023/03/12 08:27:49;;;;;;;4.60;2.25;;;;;;;;;;10370255;28;20092;-59
2023/03/12 08:32:50;;;;;;;5.43;2.20;;;;;;;;;;10369727;28;20034;-59
2023/03/12 08:37:50;;;;;;;4.43;2.20;;;;;;;;;;10368393;28;20042;-59
2023/03/12 08:42:51;;;;;;;4.43;1.90;;;;;;;;;;10370433;28;20041;-59
2023/03/12 08:47:52;;;;;;;8.90;1.95;;;;;;;;;;10369615;28;20069;-58
2023/03/12 08:52:52;;;;;;;2.65;1.60;;;;;;;;;;10369954;28;20548;-58
2023/03/12 08:57:54;;;;;;;3.03;1.70;;;;;;;;;;10369309;28;20040;-58
2023/03/12 09:02:57;;;;;;;4.72;1.70;;;;;;;;;;10369162;28;20108;-58
2023/03/12 09:07:57;;;;;;;4.35;1.92;;;;;;;;;;10369362;28;20129;-58
2023/03/12 09:12:58;;;;;;;2.45;1.75;;;;;;;;;;10369358;28;20113;-58
2023/03/12 09:17:58;;;;;;;3.08;1.70;;;;;;;;;;10368712;28;20041;-59
2023/03/12 09:22:59;;;;;;;5.30;2.00;;;;;;;;;;10368436;28;20424;-58
2023/03/12 09:28:01;;;;;;;2.88;1.63;;;;;;;;;;10368456;28;20371;-58
2023/03/12 09:33:02;;;;;;;5.18;1.80;;;;;;;;;;10368334;28;20036;-58
2023/03/12 09:38:02;;;;;;;4.53;1.55;;;;;;;;;;10368670;28;20033;-58
2023/03/12 09:43:09;;;;;;;2.85;1.63;;;;;;;;;;10368324;28;20536;-58
2023/03/12 09:48:34;;;;;;;3.67;1.70;;;;;;;;;;10367939;28;20123;-59
2023/03/12 09:53:47;;;;;;;3.20;1.65;;;;;;;;;;10366665;28;20032;-59
2023/03/12 09:58:49;;;;;;;2.35;1.75;;;;;;;;;;10368284;28;20033;-59
2023/03/12 10:04:16;;;;;;;2.60;1.52;;;;;;;;;;10368413;28;20029;-59
2023/03/12 10:09:38;;;;;;;3.00;1.42;;;;;;;;;;10367469;28;20026;-59
2023/03/12 10:14:50;;;;;;;2.30;1.60;;;;;;;;;;10367397;28;20014;-59
2023/03/12 10:20:15;;;;;;;6.38;2.75;;;;;;;;;;10367732;28;20026;-59
2023/03/12 10:25:34;;;;;;;2.25;1.60;;;;;;;;;;10367183;28;20069;-59
2023/03/12 10:30:35;;;;;;;2.28;1.70;;;;;;;;;;10366073;28;20030;-59
2023/03/12 10:35:38;;;;;;;2.40;1.65;;;;;;;;;;10366669;28;20022;-59
2023/03/12 10:40:40;;;;;;;2.60;1.83;;;;;;;;;;10365761;28;20026;-60
2023/03/12 10:46:01;;;;;;;2.55;1.80;;;;;;;;;;10366611;28;20045;-59
2023/03/12 10:51:08;;;;;;;2.10;1.70;;;;;;;;;;10366709;28;20469;-59
2023/03/12 10:56:13;;;;;;;2.58;1.70;;;;;;;;;;10365886;28;20107;-59
2023/03/12 11:01:14;;;;;;;1.95;1.70;;;;;;;;;;10367872;28;20026;-59
2023/03/12 11:06:29;;;;;;;1.98;1.65;;;;;;;;;;10373995;28;20032;-58
2023/03/12 11:11:35;;;;;;;2.05;1.50;;;;;;;;;;10372802;28;20030;-58
2023/03/12 11:16:35;;;;;;;2.67;1.83;;;;;;;;;;10373800;28;20033;-58
2023/03/12 11:21:37;;;;;;;2.55;2.00;;;;;;;;;;10373550;28;20484;-58
2023/03/12 11:27:22;;;;;;;2.42;1.60;;;;;;;;;;10374008;28;20034;-58
2023/03/12 11:32:43;;;;;;;2.65;1.70;;;;;;;;;;10371841;28;20038;-58
2023/03/12 11:37:56;;;;;;;3.13;1.92;;;;;;;;;;10371385;28;20037;-58
2023/03/12 11:43:14;;;;;;;2.25;1.88;;;;;;;;;;10372180;28;20030;-58
2023/03/12 11:48:32;;;;;;;1.80;1.70;;;;;;;;;;10372084;28;20121;-59
2023/03/12 11:53:54;;;;;;;2.00;1.60;;;;;;;;;;10371620;28;20112;-59
2023/03/12 11:59:12;;;;;;;2.28;1.80;;;;;;;;;;10371525;28;20026;-59
2023/03/12 12:04:48;;;;;;;3.20;1.70;;;;;;;;;;10371868;28;20050;-58
2023/03/12 12:10:16;;;;;;;3.35;1.80;;;;;;;;;;10371257;28;20022;-59
2023/03/12 12:15:48;;;;;;;2.57;1.77;;;;;;;;;;10369328;28;20117;-59
2023/03/12 12:21:16;;;;;;;3.00;1.70;;;;;;;;;;10369487;28;20021;-59
2023/03/12 12:26:35;;;;;;;2.40;1.80;;;;;;;;;;10369393;28;20022;-59
2023/03/12 12:32:12;;;;;;;2.65;1.63;;;;;;;;;;10370196;28;20385;-59
2023/03/12 12:38:09;;;;;;;18.92;4.57;;;;;;;;;;10359238;28;20077;-59
2023/03/12 12:43:29;;;;;;;9.35;3.05;;;;;;;;;;10370113;28;20022;-59
2023/03/12 12:48:59;;;;;;;23.23;3.25;;;;;;;;;;10370705;28;20045;-59
2023/03/12 12:54:36;;;;;;;14.07;2.42;;;;;;;;;;10368307;28;20029;-59
2023/03/12 13:00:21;;;;;;;11.00;2.38;;;;;;;;;;10368263;28;20117;-59
2023/03/12 13:05:35;;;;;;;4.93;2.47;;;;;;;;;;10369059;28;20481;-59
2023/03/12 13:10:39;;;;;;;4.82;2.15;;;;;;;;;;10369020;28;20022;-59
2023/03/12 13:15:42;;;;;;;6.13;2.03;;;;;;;;;;10368454;28;20477;-59
2023/03/12 13:20:51;;;;;;;11.70;2.50;;;;;;;;;;10369045;28;20033;-59
2023/03/12 13:26:24;;;;;;;5.38;2.58;;;;;;;;;;10368333;28;20116;-59
2023/03/12 13:31:27;;;;;;;5.13;2.45;;;;;;;;;;10365470;28;20105;-58
2023/03/12 13:36:28;;;;;;;9.55;2.10;;;;;;;;;;10367422;28;20050;-58
2023/03/12 13:41:49;;;;;;;4.57;2.15;;;;;;;;;;10366862;28;20172;-58
2023/03/12 13:47:03;;;;;;;4.60;2.10;;;;;;;;;;10367942;28;20041;-59
2023/03/12 13:52:24;;;;;;;6.45;2.00;;;;;;;;;;10367537;28;20470;-59
2023/03/12 13:57:39;;;;;;;6.00;2.20;;;;;;;;;;10366804;28;20044;-59
2023/03/12 14:03:08;;;;;;;7.55;2.10;;;;;;;;;;10365697;28;20113;-59
2023/03/12 14:08:46;;;;;;;5.72;1.95;;;;;;;;;;10367457;28;20026;-59
2023/03/12 14:14:15;;;;;;;;;;;;;;;;;;10365747;28;20088;-58
2023/03/12 14:19:22;;;;;;;5.28;2.20;;;;;;;;;;10367678;28;19913;-58
2023/03/12 14:24:28;;;;;;;9.43;2.45;;;;;;;;;;10366123;28;20461;-59
2023/03/12 14:29:39;;;;;;;8.48;2.58;;;;;;;;;;10366889;28;20389;-58
2023/03/12 14:34:56;;;;;;;6.75;2.58;;;;;;;;;;10365113;28;20084;-59
2023/03/12 14:40:03;;;;;;;20.05;2.60;;;;;;;;;;10372867;28;20473;-59
2023/03/12 14:45:12;;;;;;;8.75;2.60;;;;;;;;;;10374312;28;20057;-59
2023/03/12 14:50:39;;;;;;;6.95;2.40;;;;;;;;;;10374511;28;20022;-59
2023/03/12 14:55:39;;;;;;;6.85;2.45;;;;;;;;;;10373031;28;20038;-61
2023/03/12 15:00:42;;;;;;;8.82;2.40;;;;;;;;;;10372398;28;20026;-58
2023/03/12 15:05:47;;;;;;;6.70;2.22;;;;;;;;;;10373302;28;20095;-58
2023/03/12 15:10:53;;;;;;;4.70;2.20;;;;;;;;;;10372585;28;20046;-58
2023/03/12 15:15:54;;;;;;;7.93;1.98;;;;;;;;;;10372941;28;20065;-58
2023/03/12 15:20:56;;;;;;;2.67;2.00;;;;;;;;;;10372402;28;20065;-58
2023/03/12 15:26:28;;;;;;;5.35;2.25;;;;;;;;;;10370823;28;20030;-58
2023/03/12 15:31:48;;;;;;;6.72;2.28;;;;;;;;;;10373172;28;20022;-58
2023/03/12 15:36:50;;;;;;;4.20;2.28;;;;;;;;;;10372767;28;20038;-58
2023/03/12 15:41:51;;;;;;;3.78;2.15;;;;;;;;;;10373015;28;20030;-58
2023/03/12 15:47:16;;;;;;;4.10;1.70;;;;;;;;;;10370064;28;20050;-58
2023/03/12 15:52:20;;;;;;;4.93;2.10;;;;;;;;;;10372475;28;20026;-58
2023/03/12 15:57:25;;;;;;;3.85;1.80;;;;;;;;;;10371481;28;20446;-58
2023/03/12 16:02:45;;;;;;;3.55;2.10;;;;;;;;;;10371642;28;20029;-58
2023/03/12 16:07:46;;;;;;;7.85;2.53;;;;;;;;;;10371271;28;20029;-59
2023/03/12 16:12:49;;;;;;;6.50;2.10;;;;;;;;;;10370063;28;20026;-60
2023/03/12 16:17:49;;;;;;;6.82;2.40;;;;;;;;;;10369691;28;20033;-59
2023/03/12 16:22:50;;;;;;;4.80;1.90;;;;;;;;;;10370777;28;20026;-59
2023/03/12 16:27:56;;;;;;;3.80;1.98;;;;;;;;;;10371045;28;20030;-59
2023/03/12 16:32:59;;;;;;;3.05;2.05;;;;;;;;;;10369478;28;20037;-58
2023/03/12 16:38:00;;;;;;;6.03;2.10;;;;;;;;;;10370666;28;20113;-59
2023/03/12 16:43:04;;;;;;;4.72;2.30;;;;;;;;;;10370136;28;20030;-58
2023/03/12 16:48:05;;;;;;;2.05;1.60;;;;;;;;;;10369339;28;20088;-59
2023/03/12 16:53:06;;;;;;;3.97;1.98;;;;;;;;;;10369710;28;20421;-58
2023/03/12 16:58:12;;;;;;;1.92;1.67;;;;;;;;;;10369450;28;20029;-58
2023/03/12 17:03:25;;;;;;;1.70;1.60;;;;;;;;;;10367287;28;20041;-58
2023/03/12 17:08:26;;;;;;;5.20;2.05;;;;;;;;;;10369346;28;20030;-58
2023/03/12 17:13:28;;;;;;;3.03;2.15;;;;;;;;;;10368869;28;20026;-59
2023/03/12 17:18:29;;;;;;;15.73;3.10;;;;;;;;;;10368681;28;20053;-58
2023/03/12 17:23:29;;;;;;;11.13;3.13;;;;;;;;;;10368535;28;20030;-58
2023/03/12 17:28:30;;;;;;;10.30;2.53;;;;;;;;;;10369585;28;20036;-58
2023/03/12 17:33:31;;;;;;;6.18;2.70;;;;;;;;;;10368329;28;20029;-58
2023/03/12 17:38:33;;;;;;;10.00;2.85;;;;;;;;;;10366557;28;20343;-58
2023/03/12 17:43:34;;;;;;;5.72;2.38;;;;;;;;;;10368541;28;20036;-58
2023/03/12 17:48:34;;;;;;;7.25;2.40;;;;;;;;;;10368600;28;20034;-58
2023/03/12 17:53:38;;;;;;;8.82;2.17;;;;;;;;;;10368130;28;20493;-61
2023/03/12 17:58:38;;;;;;;9.88;2.55;;;;;;;;;;10366993;28;20034;-61
2023/03/12 18:03:39;;;;;;;3.25;1.85;;;;;;;;;;10367424;28;20044;-60
2023/03/12 18:08:40;;;;;;;9.02;2.40;;;;;;;;;;10362736;28;20022;-60
2023/03/12 18:13:40;;;;;;;7.97;2.45;;;;;;;;;;10373960;28;20075;-61
2023/03/12 18:18:41;;;;;;;5.90;2.45;;;;;;;;;;10375908;28;20034;-61
2023/03/12 18:23:42;;;;;;;5.38;2.13;;;;;;;;;;10374541;28;20033;-62
2023/03/12 18:28:43;;;;;;;7.35;2.38;;;;;;;;;;10374386;28;20026;-62
2023/03/12 18:33:43;;;;;;;5.07;2.20;;;;;;;;;;10374385;28;20049;-62
2023/03/12 18:38:45;;;;;;;5.22;2.35;;;;;;;;;;10375231;28;20104;-62
2023/03/12 18:43:45;;;;;;;5.88;2.38;;;;;;;;;;10374286;28;20033;-61
2023/03/12 18:48:46;;;;;;;10.32;2.30;;;;;;;;;;10374080;28;20088;-62
2023/03/12 18:53:47;;;;;;;5.05;2.15;;;;;;;;;;10374167;28;20022;-62
2023/03/12 18:58:47;;;;;;;4.07;2.08;;;;;;;;;;10373868;28;20030;-62
2023/03/12 19:03:48;;;;;;;8.38;2.28;;;;;;;;;;10373802;28;20021;-62
2023/03/12 19:08:48;;;;;;;6.25;2.40;;;;;;;;;;10370340;28;20049;-62
2023/03/12 19:13:53;;;;;;;7.38;2.42;;;;;;;;;;10370049;28;20025;-62
2023/03/12 19:18:54;;;;;;;5.63;2.28;;;;;;;;;;10373706;28;20065;-61
2023/03/12 19:23:55;;;;;;;2.65;2.10;;;;;;;;;;10372408;28;20058;-62
2023/03/12 19:28:55;;;;;;;4.43;2.08;;;;;;;;;;10372883;28;20030;-60
2023/03/12 19:33:56;;;;;;;4.70;2.22;;;;;;;;;;10372752;28;20034;-61
2023/03/12 19:38:56;;;;;;;4.72;2.17;;;;;;;;;;10372177;28;20026;-60
2023/03/12 19:43:57;;;;;;;5.05;2.17;;;;;;;;;;10372551;28;20054;-60
2023/03/12 19:48:57;;;;;;;5.28;2.28;;;;;;;;;;10371975;28;20429;-61
2023/03/12 19:53:58;;;;;;;8.27;2.30;;;;;;;;;;10371517;28;20025;-59
2023/03/12 19:58:59;;;;;;;4.40;2.17;;;;;;;;;;10371746;28;20029;-59
2023/03/12 20:03:59;;;;;;;4.45;2.08;;;;;;;;;;10371526;28;20029;-59
2023/03/12 20:09:00;;;;;;;4.20;2.17;;;;;;;;;;10370987;28;20030;-59
2023/03/12 20:14:03;;;;;;;5.90;2.50;;;;;;;;;;10368082;28;20033;-59
2023/03/12 20:19:03;;;;;;;2.58;2.10;;;;;;;;;;10370316;28;20685;-59
2023/03/12 20:24:04;;;;;;;3.40;2.38;;;;;;;;;;10366470;28;20041;-59
2023/03/12 20:29:05;;;;;;;4.88;2.25;;;;;;;;;;10370779;28;20103;-59
2023/03/12 20:34:06;;;;;;;4.30;2.38;;;;;;;;;;10369905;28;20545;-59
2023/03/12 20:39:07;;;;;;;5.47;2.53;;;;;;;;;;10370317;28;20034;-59
2023/03/12 20:44:07;;;;;;;4.70;2.28;;;;;;;;;;10369262;28;20227;-58
2023/03/12 20:49:09;;;;;;;4.80;2.10;;;;;;;;;;10370009;28;20056;-59
2023/03/12 20:54:10;;;;;;;3.35;2.33;;;;;;;;;;10369125;28;20098;-59
2023/03/12 20:59:12;;;;;;;3.95;2.42;;;;;;;;;;10369406;28;20045;-59
2023/03/12 21:04:13;;;;;;;3.42;2.33;;;;;;;;;;10369079;28;20022;-59
2023/03/12 21:09:14;;;;;;;3.55;2.30;;;;;;;;;;10368615;28;20065;-59
2023/03/12 21:14:15;;;;;;;5.38;2.78;;;;;;;;;;10367406;28;20607;-59
2023/03/12 21:19:15;;;;;;;4.43;2.40;;;;;;;;;;10368364;28;20034;-59
2023/03/12 21:24:16;;;;;;;3.92;2.60;;;;;;;;;;10367665;28;20034;-59
2023/03/12 21:29:16;;;;;;;4.13;2.70;;;;;;;;;;10368713;28;20025;-60
2023/03/12 21:34:17;;;;;;;4.57;2.60;;;;;;;;;;10368780;28;20164;-59
2023/03/12 21:39:17;;;;;;;4.60;3.13;;;;;;;;;;10368103;28;20029;-59
2023/03/12 21:44:18;;;;;;;7.43;2.70;;;;;;;;;;10362721;28;20052;-60
2023/03/12 21:49:18;;;;;;;16.55;3.05;;;;;;;;;;10367461;28;20438;-60
2023/03/12 21:54:19;;;;;;;11.45;3.30;;;;;;;;;;10367263;28;20044;-58
2023/03/12 21:59:20;;;;;;;12.05;4.15;;;;;;;;;;10366852;28;20033;-58
2023/03/12 22:04:20;;;;;;;10.98;3.53;;;;;;;;;;10367413;28;20060;-59
2023/03/12 22:09:21;;;;;;;6.15;2.92;;;;;;;;;;10367044;28;20048;-58
2023/03/12 22:14:23;;;;;;;8.90;2.97;;;;;;;;;;10366315;28;20025;-59
2023/03/12 22:19:23;;;;;;;8.98;3.00;;;;;;;;;;10367410;28;20096;-59
2023/03/12 22:24:24;;;;;;;5.63;2.97;;;;;;;;;;10367240;28;20084;-58
2023/03/12 22:29:24;;;;;;;9.80;3.13;;;;;;;;;;10366954;28;20052;-58
2023/03/12 22:34:25;;;;;;;6.00;2.75;;;;;;;;;;10367223;28;20026;-58
2023/03/12 22:39:25;;;;;;;12.27;3.42;;;;;;;;;;10367268;28;20057;-58
2023/03/12 22:44:26;;;;;;;5.25;2.97;;;;;;;;;;10366712;28;20038;-58
2023/03/12 22:49:27;;;;;;;4.88;2.97;;;;;;;;;;10366265;28;20034;-58
2023/03/12 22:54:27;;;;;;;11.43;3.33;;;;;;;;;;10363871;28;20037;-58
2023/03/12 22:59:28;;;;;;;8.63;2.60;;;;;;;;;;10371496;28;20065;-58
2023/03/12 23:04:28;;;;;;;5.80;2.85;;;;;;;;;;10373543;28;20026;-59
2023/03/12 23:09:29;;;;;;;5.88;2.75;;;;;;;;;;10370247;28;20025;-58
2023/03/12 23:14:29;;;;;;;3.72;2.65;;;;;;;;;;10373359;28;20029;-58
2023/03/12 23:19:33;;;;;;;9.90;3.20;;;;;;;;;;10373158;28;20034;-58
2023/03/12 23:24:34;;;;;;;4.53;2.72;;;;;;;;;;10373534;28;20030;-58
2023/03/12 23:29:34;;;;;;;5.63;2.70;;;;;;;;;;10372694;28;20041;-59
2023/03/12 23:34:35;;;;;;;6.90;2.42;;;;;;;;;;10373072;28;20030;-59
2023/03/12 23:39:35;;;;;;;3.63;2.70;;;;;;;;;;10372844;28;20029;-58
2023/03/12 23:44:37;;;;;;;7.40;2.47;;;;;;;;;;10372205;28;20037;-58
2023/03/12 23:49:38;;;;;;;4.00;2.75;;;;;;;;;;10372630;28;20026;-59
2023/03/12 23:54:38;;;;;;;4.07;2.70;;;;;;;;;;10372398;28;20253;-59
2023/03/12 23:59:39;;;;;;;7.35;2.88;;;;;;;;;;10372272;28;20057;-59
